Time;durP1;ratioP1;P1;durP2;ratioP2;P2;SDS_P1;SDS_P2;PMS_P1;PMS_P2;Temp;Humidity;BMP_temperature;BMP_pressure;BME280_temperature;BME280_humidity;BME280_pressure;Samples;Min_cycle;Max_cycle;Signal;HPM_P1;HPM_P2
2022/08/05 00:01:12;;;;;;;2.45;1.83;;;;;;;-143.85;100.00;70650.75;5092325;28;20050;-82
2022/08/05 00:03:37;;;;;;;2.65;1.88;;;;;;;-143.85;100.00;70650.75;5091000;28;20115;-83
2022/08/05 00:06:03;;;;;;;1.60;1.33;;;;;;;-143.85;100.00;70650.75;5091317;28;20050;-83
2022/08/05 00:08:28;;;;;;;2.90;1.30;;;;;;;-143.85;100.00;70650.75;5090844;28;20031;-82
2022/08/05 00:10:53;;;;;;;1.95;1.52;;;;;;;-143.85;100.00;70650.75;5091067;28;20027;-83
2022/08/05 00:13:19;;;;;;;1.77;1.30;;;;;;;-143.85;100.00;70650.75;5091146;28;20066;-83
2022/08/05 00:15:44;;;;;;;2.50;1.50;;;;;;;-143.85;100.00;70650.75;5090961;28;20015;-81
2022/08/05 00:18:11;;;;;;;1.85;1.58;;;;;;;-143.85;100.00;70650.75;5090843;28;20024;-80
2022/08/05 00:20:36;;;;;;;1.65;1.35;;;;;;;-143.85;100.00;70650.75;5092618;28;20101;-81
2022/08/05 00:23:01;;;;;;;3.33;1.88;;;;;;;-143.85;100.00;70650.75;5090799;28;20066;-80
2022/08/05 00:25:27;;;;;;;1.83;1.73;;;;;;;-143.85;100.00;70650.75;5090831;28;20188;-80
2022/08/05 00:27:52;;;;;;;2.72;2.03;;;;;;;-143.85;100.00;70650.75;5092037;28;20031;-81
2022/08/05 00:30:18;;;;;;;3.83;1.55;;;;;;;-143.85;100.00;70650.75;5090797;28;20020;-80
2022/08/05 00:32:43;;;;;;;4.45;1.77;;;;;;;-143.85;100.00;70650.75;5091520;28;20095;-81
2022/08/05 00:35:09;;;;;;;2.35;1.85;;;;;;;-143.85;100.00;70650.75;5094326;28;20464;-80
2022/08/05 00:37:34;;;;;;;4.72;2.25;;;;;;;-143.85;100.00;70650.75;5094714;28;20055;-80
2022/08/05 00:40:00;;;;;;;1.83;1.55;;;;;;;-143.85;100.00;70650.75;5094365;28;20017;-80
2022/08/05 00:42:34;;;;;;;3.63;2.33;;;;;;;-143.85;100.00;70650.75;5094523;28;20032;-80
2022/08/05 00:45:00;;;;;;;1.65;1.55;;;;;;;-143.85;100.00;70650.75;5094358;28;20446;-80
2022/08/05 00:47:26;;;;;;;1.60;1.50;;;;;;;-143.85;100.00;70650.75;5093978;28;20040;-80
2022/08/05 00:49:52;;;;;;;1.30;1.13;;;;;;;-143.85;100.00;70650.75;5095449;28;20537;-80
2022/08/05 00:52:18;;;;;;;1.88;1.33;;;;;;;-143.85;100.00;70650.75;5094156;28;20024;-81
2022/08/05 00:54:44;;;;;;;2.15;1.80;;;;;;;-143.85;100.00;70650.75;5094068;28;20031;-82
2022/08/05 00:57:09;;;;;;;2.22;1.60;;;;;;;-143.85;100.00;70650.75;5093796;28;20123;-83
2022/08/05 00:59:35;;;;;;;2.80;1.45;;;;;;;-143.85;100.00;70650.75;5094007;28;20054;-83
2022/08/05 01:02:00;;;;;;;2.83;1.63;;;;;;;-143.85;100.00;70650.75;5093920;28;20361;-82
2022/08/05 01:04:26;;;;;;;2.58;1.67;;;;;;;-143.85;100.00;70650.75;5094337;28;20027;-82
2022/08/05 01:06:51;;;;;;;2.08;1.60;;;;;;;-143.85;100.00;70650.75;5094455;28;20031;-82
2022/08/05 01:09:17;;;;;;;4.10;2.05;;;;;;;-143.85;100.00;70650.75;5093842;28;20384;-83
2022/08/05 01:11:43;;;;;;;1.70;1.60;;;;;;;-143.85;100.00;70650.75;5093811;28;20464;-83
2022/08/05 01:14:40;;;;;;;3.40;2.08;;;;;;;-143.85;100.00;70650.75;5093643;28;20020;-82
2022/08/05 01:17:21;;;;;;;;;;;;;;;-143.85;100.00;70650.75;5073515;28;20035;-82
2022/08/05 01:19:54;;;;;;;2.33;2.13;;;;;;;-143.85;100.00;70650.75;5093845;28;20061;-82
2022/08/05 01:22:41;;;;;;;2.08;1.88;;;;;;;-143.85;100.00;70650.75;5093606;28;20020;-82
2022/08/05 01:25:22;;;;;;;2.10;1.70;;;;;;;-143.85;100.00;70650.75;5093571;28;20043;-82
2022/08/05 01:28:12;;;;;;;2.55;2.25;;;;;;;-143.85;100.00;70650.75;5093506;28;20319;-82
2022/08/05 01:30:46;;;;;;;2.47;2.28;;;;;;;-143.85;100.00;70650.75;5093365;28;20020;-82
2022/08/05 01:33:14;;;;;;;2.05;1.85;;;;;;;-143.85;100.00;70650.75;5094687;28;20035;-83
2022/08/05 01:35:42;;;;;;;1.95;1.67;;;;;;;-143.85;100.00;70650.75;5093359;28;20024;-82
2022/08/05 01:38:10;;;;;;;2.28;1.98;;;;;;;-143.85;100.00;70650.75;5093452;28;20085;-82
2022/08/05 01:40:37;;;;;;;1.60;1.45;;;;;;;-143.85;100.00;70650.75;5093340;28;20438;-83
2022/08/05 01:43:04;;;;;;;2.53;1.77;;;;;;;-143.85;100.00;70650.75;5093199;28;20160;-82
2022/08/05 01:45:30;;;;;;;3.25;1.80;;;;;;;-143.85;100.00;70650.75;5092022;28;20111;-82
2022/08/05 01:47:59;;;;;;;1.95;1.65;;;;;;;-143.85;100.00;70650.75;5092889;28;20402;-81
2022/08/05 01:50:38;;;;;;;2.05;1.77;;;;;;;-143.85;100.00;70650.75;5093036;28;20020;-82
2022/08/05 01:53:08;;;;;;;2.25;1.52;;;;;;;-143.85;100.00;70650.75;5094409;28;20024;-82
2022/08/05 01:55:35;;;;;;;1.85;1.65;;;;;;;-143.85;100.00;70650.75;5094333;28;20148;-82
2022/08/05 01:58:04;;;;;;;2.30;2.10;;;;;;;-143.85;100.00;70650.75;5092809;28;20364;-82
2022/08/05 02:00:32;;;;;;;3.38;1.63;;;;;;;-143.85;100.00;70650.75;5092777;28;20032;-82
2022/08/05 02:03:04;;;;;;;2.08;1.70;;;;;;;-143.85;100.00;70650.75;5093959;28;20467;-80
2022/08/05 02:05:33;;;;;;;1.88;1.75;;;;;;;-143.85;100.00;70650.75;5092765;28;20028;-82
2022/08/05 02:07:59;;;;;;;2.85;1.92;;;;;;;-143.85;100.00;70650.75;5092717;28;20020;-82
2022/08/05 02:10:27;;;;;;;2.85;1.85;;;;;;;-143.85;100.00;70650.75;5093850;28;20468;-82
2022/08/05 02:13:03;;;;;;;3.28;2.05;;;;;;;-143.85;100.00;70650.75;5092389;28;20020;-81
2022/08/05 02:15:43;;;;;;;2.60;1.83;;;;;;;-143.85;100.00;70650.75;5093118;28;20023;-82
2022/08/05 02:18:24;;;;;;;1.50;1.40;;;;;;;-143.85;100.00;70650.75;5092807;28;20020;-82
2022/08/05 02:20:59;;;;;;;1.95;1.63;;;;;;;-143.85;100.00;70650.75;5092448;28;20084;-82
2022/08/05 02:23:29;;;;;;;3.60;1.48;;;;;;;-143.85;100.00;70650.75;5093933;28;20153;-81
2022/08/05 02:25:59;;;;;;;1.80;1.70;;;;;;;-143.85;100.00;70650.75;5092580;28;20458;-82
2022/08/05 02:28:28;;;;;;;2.45;1.95;;;;;;;-143.85;100.00;70650.75;5093410;28;20070;-82
2022/08/05 02:30:57;;;;;;;2.67;1.92;;;;;;;-143.85;100.00;70650.75;5091921;28;20024;-82
2022/08/05 02:33:24;;;;;;;2.30;1.88;;;;;;;-143.85;100.00;70650.75;5092132;28;20169;-81
2022/08/05 02:35:52;;;;;;;2.67;1.42;;;;;;;-143.85;100.00;70650.75;5093362;28;20360;-82
2022/08/05 02:38:18;;;;;;;;;;;;;;;-143.85;100.00;70650.75;5092533;28;20447;-82
2022/08/05 02:40:45;;;;;;;1.85;1.75;;;;;;;-143.85;100.00;70650.75;5092240;28;19969;-82
2022/08/05 02:43:12;;;;;;;4.50;1.73;;;;;;;-143.85;100.00;70650.75;5091792;28;20031;-82
2022/08/05 02:45:40;;;;;;;1.77;1.45;;;;;;;-143.85;100.00;70650.75;5092021;28;20020;-82
2022/08/05 02:48:07;;;;;;;2.53;2.03;;;;;;;-143.85;100.00;70650.75;5091665;28;20093;-82
2022/08/05 02:50:33;;;;;;;2.80;1.83;;;;;;;-143.85;100.00;70650.75;5091895;28;20044;-82
2022/08/05 02:53:00;;;;;;;2.28;1.33;;;;;;;-143.85;100.00;70650.75;5091892;28;20060;-83
2022/08/05 02:55:27;;;;;;;2.83;1.80;;;;;;;-143.85;100.00;70650.75;5092902;28;20073;-80
2022/08/05 02:57:54;;;;;;;3.80;1.90;;;;;;;-143.85;100.00;70650.75;5091719;28;20028;-80
2022/08/05 03:00:20;;;;;;;2.20;1.73;;;;;;;-143.85;100.00;70650.75;5092982;28;20455;-80
2022/08/05 03:02:47;;;;;;;3.20;2.05;;;;;;;-143.85;100.00;70650.75;5091557;28;20051;-80
2022/08/05 03:05:14;;;;;;;2.13;1.70;;;;;;;-143.85;100.00;70650.75;5092940;28;20028;-80
2022/08/05 03:07:41;;;;;;;2.55;1.52;;;;;;;-143.85;100.00;70650.75;5092852;28;20261;-79
2022/08/05 03:10:08;;;;;;;1.73;1.60;;;;;;;-143.85;100.00;70650.75;5091664;28;20036;-80
2022/08/05 03:12:36;;;;;;;3.53;2.20;;;;;;;-143.85;100.00;70650.75;5091462;28;20411;-80
2022/08/05 03:15:05;;;;;;;1.95;1.67;;;;;;;-143.85;100.00;70650.75;5091278;28;20049;-79
2022/08/05 03:17:30;;;;;;;3.65;1.80;;;;;;;-143.85;100.00;70650.75;5091375;28;20024;-80
2022/08/05 03:19:56;;;;;;;3.83;2.03;;;;;;;-143.85;100.00;70650.75;5091413;28;20080;-80
2022/08/05 03:22:21;;;;;;;3.45;1.92;;;;;;;-143.85;100.00;70650.75;5092685;28;20099;-79
2022/08/05 03:24:48;;;;;;;2.38;1.75;;;;;;;-143.85;100.00;70650.75;5091334;28;20055;-78
2022/08/05 03:27:15;;;;;;;3.87;2.00;;;;;;;-143.85;100.00;70650.75;5091424;28;20472;-79
2022/08/05 03:29:40;;;;;;;2.42;1.70;;;;;;;-143.85;100.00;70650.75;5091276;28;20273;-80
2022/08/05 03:32:09;;;;;;;1.73;1.40;;;;;;;-143.85;100.00;70650.75;5091186;28;20024;-80
2022/08/05 03:34:36;;;;;;;3.50;1.80;;;;;;;-143.85;100.00;70650.75;5091278;28;20028;-79
2022/08/05 03:37:03;;;;;;;2.80;2.08;;;;;;;-143.85;100.00;70650.75;5091537;28;20024;-79
2022/08/05 03:39:29;;;;;;;3.47;2.13;;;;;;;-143.85;100.00;70650.75;5091395;28;20076;-79
2022/08/05 03:41:55;;;;;;;5.07;1.70;;;;;;;-143.85;100.00;70650.75;5091373;28;20118;-79
2022/08/05 03:44:20;;;;;;;1.92;1.83;;;;;;;-143.85;100.00;70650.75;5091125;28;20382;-79
2022/08/05 03:46:46;;;;;;;1.83;1.60;;;;;;;-143.85;100.00;70650.75;5090884;28;20028;-79
2022/08/05 03:49:12;;;;;;;1.90;1.67;;;;;;;-143.85;100.00;70650.75;5091168;28;20020;-79
2022/08/05 03:51:42;;;;;;;2.15;1.38;;;;;;;-143.85;100.00;70650.75;5090943;28;20107;-79
2022/08/05 03:54:27;;;;;;;2.97;1.67;;;;;;;-143.85;100.00;70650.75;5090964;28;20475;-79
2022/08/05 03:56:53;;;;;;;3.35;1.92;;;;;;;-143.85;100.00;70650.75;5092428;28;20038;-80
2022/08/05 03:59:22;;;;;;;2.13;1.92;;;;;;;-143.85;100.00;70650.75;5092060;28;20395;-80
2022/08/05 04:01:50;;;;;;;4.00;1.25;;;;;;;-143.85;100.00;70650.75;5092109;28;20110;-80
2022/08/05 04:04:18;;;;;;;3.78;1.80;;;;;;;-143.85;100.00;70650.75;5091013;28;20016;-80
2022/08/05 04:06:45;;;;;;;2.78;1.90;;;;;;;-143.85;100.00;70650.75;5090936;28;20189;-79
2022/08/05 04:09:11;;;;;;;2.63;1.90;;;;;;;-143.85;100.00;70650.75;5094267;28;20111;-79
2022/08/05 04:11:37;;;;;;;2.55;1.45;;;;;;;-143.85;100.00;70650.75;5095087;28;20122;-79
2022/08/05 04:14:03;;;;;;;3.53;2.00;;;;;;;-143.85;100.00;70650.75;5095022;28;20111;-79
2022/08/05 04:16:31;;;;;;;3.40;1.65;;;;;;;-143.85;100.00;70650.75;5095890;28;20038;-79
2022/08/05 04:18:56;;;;;;;1.80;1.63;;;;;;;-143.85;100.00;70650.75;5094825;28;20024;-78
2022/08/05 04:21:22;;;;;;;2.45;1.50;;;;;;;-143.85;100.00;70650.75;5094783;28;20494;-78
2022/08/05 04:23:48;;;;;;;1.50;1.40;;;;;;;-143.85;100.00;70650.75;5094603;28;20039;-78
2022/08/05 04:26:14;;;;;;;3.28;1.63;;;;;;;-143.85;100.00;70650.75;5096378;28;20045;-79
2022/08/05 04:28:39;;;;;;;2.45;1.50;;;;;;;-143.85;100.00;70650.75;5094559;28;20012;-79
2022/08/05 04:31:05;;;;;;;2.10;1.25;;;;;;;-143.85;100.00;70650.75;5094398;28;20023;-79
2022/08/05 04:33:31;;;;;;;2.15;1.88;;;;;;;-143.85;100.00;70650.75;5094475;28;20016;-78
2022/08/05 04:35:56;;;;;;;2.35;1.40;;;;;;;-143.85;100.00;70650.75;5094594;28;20035;-78
2022/08/05 04:38:21;;;;;;;2.72;1.50;;;;;;;-143.85;100.00;70650.75;5094371;28;20020;-79
2022/08/05 04:40:47;;;;;;;3.00;2.10;;;;;;;-143.85;100.00;70650.75;5095544;28;20063;-78
2022/08/05 04:43:12;;;;;;;2.42;1.35;;;;;;;-143.85;100.00;70650.75;5094311;28;20513;-78
2022/08/05 04:45:38;;;;;;;1.88;1.60;;;;;;;-143.85;100.00;70650.75;5094277;28;20464;-78
2022/08/05 04:48:09;;;;;;;2.05;1.52;;;;;;;-143.85;100.00;70650.75;5093906;28;20055;-79
2022/08/05 04:50:45;;;;;;;1.77;1.67;;;;;;;-143.85;100.00;70650.75;5093961;28;20024;-79
2022/08/05 04:53:12;;;;;;;1.48;1.38;;;;;;;-143.85;100.00;70650.75;5095383;28;20012;-78
2022/08/05 04:55:40;;;;;;;1.55;1.45;;;;;;;-143.85;100.00;70650.75;5094688;28;20047;-79
2022/08/05 04:58:08;;;;;;;2.22;1.90;;;;;;;-143.85;100.00;70650.75;5094103;28;20020;-79
2022/08/05 05:00:35;;;;;;;2.88;1.50;;;;;;;-143.85;100.00;70650.75;5095539;28;20028;-79
2022/08/05 05:03:01;;;;;;;1.38;1.25;;;;;;;-143.85;100.00;70650.75;5094053;28;20031;-79
2022/08/05 05:05:27;;;;;;;3.40;1.70;;;;;;;-143.85;100.00;70650.75;5093829;28;20034;-79
2022/08/05 05:07:54;;;;;;;1.92;1.45;;;;;;;-143.85;100.00;70650.75;5093757;28;20498;-81
2022/08/05 05:10:19;;;;;;;1.70;1.55;;;;;;;-143.85;100.00;70650.75;5093704;28;20024;-80
2022/08/05 05:12:45;;;;;;;3.90;1.60;;;;;;;-143.85;100.00;70650.75;5093673;28;20023;-80
2022/08/05 05:15:10;;;;;;;1.80;1.52;;;;;;;-143.85;100.00;70650.75;5093774;28;20056;-80
2022/08/05 05:17:40;;;;;;;2.05;1.90;;;;;;;-143.85;100.00;70650.75;5093493;28;20031;-78
2022/08/05 05:20:07;;;;;;;2.15;1.95;;;;;;;-143.85;100.00;70650.75;5093541;28;20048;-80
2022/08/05 05:22:33;;;;;;;1.80;1.58;;;;;;;-143.85;100.00;70650.75;5093317;28;20024;-80
2022/08/05 05:24:59;;;;;;;2.05;1.67;;;;;;;-143.85;100.00;70650.75;5093646;28;20548;-80
2022/08/05 05:27:28;;;;;;;2.35;2.15;;;;;;;-143.85;100.00;70650.75;5093466;28;20020;-80
2022/08/05 05:29:54;;;;;;;2.33;1.80;;;;;;;-143.85;100.00;70650.75;5093321;28;20049;-81
2022/08/05 05:32:19;;;;;;;2.38;1.40;;;;;;;-143.85;100.00;70650.75;5093280;28;20023;-80
2022/08/05 05:34:45;;;;;;;2.65;2.00;;;;;;;-143.85;100.00;70650.75;5093173;28;20077;-81
2022/08/05 05:37:11;;;;;;;2.95;1.52;;;;;;;-143.85;100.00;70650.75;5093725;28;20020;-81
2022/08/05 05:39:37;;;;;;;2.72;1.38;;;;;;;-143.85;100.00;70650.75;5093253;28;20092;-81
2022/08/05 05:42:03;;;;;;;1.23;1.13;;;;;;;-143.85;100.00;70650.75;5093156;28;20542;-82
2022/08/05 05:44:28;;;;;;;2.08;1.50;;;;;;;-143.85;100.00;70650.75;5093136;28;20028;-81
2022/08/05 05:46:53;;;;;;;1.92;1.70;;;;;;;-143.85;100.00;70650.75;5093907;28;20052;-81
2022/08/05 05:49:19;;;;;;;2.28;1.38;;;;;;;-143.85;100.00;70650.75;5092974;28;20093;-81
2022/08/05 05:51:44;;;;;;;2.38;1.70;;;;;;;-143.85;100.00;70650.75;5093321;28;20024;-82
2022/08/05 05:54:10;;;;;;;1.88;1.23;;;;;;;-143.85;100.00;70650.75;5092907;28;20478;-82
2022/08/05 05:56:35;;;;;;;1.25;1.15;;;;;;;-143.85;100.00;70650.75;5092888;28;20027;-82
2022/08/05 05:59:05;;;;;;;2.50;1.17;;;;;;;-143.85;100.00;70650.75;5092735;28;20020;-81
2022/08/05 06:01:31;;;;;;;2.30;1.25;;;;;;;-143.85;100.00;70650.75;5092831;28;20031;-81
2022/08/05 06:03:56;;;;;;;1.10;0.82;;;;;;;-143.85;100.00;70650.75;5092721;28;20056;-82
2022/08/05 06:06:22;;;;;;;2.63;1.52;;;;;;;-143.85;100.00;70650.75;5092677;28;20027;-82
2022/08/05 06:08:47;;;;;;;1.45;1.17;;;;;;;-143.85;100.00;70650.75;5092672;28;20020;-82
2022/08/05 06:11:12;;;;;;;1.70;1.20;;;;;;;-143.85;100.00;70650.75;5092540;28;20019;-82
2022/08/05 06:13:38;;;;;;;3.17;1.48;;;;;;;-143.85;100.00;70650.75;5092851;28;20028;-82
2022/08/05 06:16:03;;;;;;;1.63;1.10;;;;;;;-143.85;100.00;70650.75;5092565;28;20043;-82
2022/08/05 06:18:29;;;;;;;0.85;0.82;;;;;;;-143.85;100.00;70650.75;5092410;28;20387;-82
2022/08/05 06:20:54;;;;;;;1.98;1.20;;;;;;;-143.85;100.00;70650.75;5092654;28;20464;-82
2022/08/05 06:23:20;;;;;;;1.15;1.08;;;;;;;-143.85;100.00;70650.75;5093435;28;20460;-82
2022/08/05 06:25:45;;;;;;;1.08;0.98;;;;;;;-143.85;100.00;70650.75;5092355;28;20241;-80
2022/08/05 06:28:11;;;;;;;1.20;1.10;;;;;;;-143.85;100.00;70650.75;5092538;28;20031;-79
2022/08/05 06:30:36;;;;;;;1.60;1.42;;;;;;;-143.85;100.00;70650.75;5091737;28;20031;-79
2022/08/05 06:33:01;;;;;;;1.13;1.03;;;;;;;-143.85;100.00;70650.75;5092010;28;20057;-80
2022/08/05 06:35:27;;;;;;;3.03;1.20;;;;;;;-143.85;100.00;70650.75;5092202;28;20047;-80
2022/08/05 06:37:52;;;;;;;0.80;0.80;;;;;;;-143.85;100.00;70650.75;5092742;28;20115;-79
2022/08/05 06:40:18;;;;;;;1.37;0.77;;;;;;;-143.85;100.00;70650.75;5092047;28;20118;-80
2022/08/05 06:42:43;;;;;;;1.23;1.10;;;;;;;-143.85;100.00;70650.75;5092034;28;20028;-79
2022/08/05 06:45:09;;;;;;;1.27;1.17;;;;;;;-143.85;100.00;70650.75;5092047;28;20016;-79
2022/08/05 06:47:35;;;;;;;1.00;1.00;;;;;;;-143.85;100.00;70650.75;5093305;28;20489;-80
2022/08/05 06:50:00;;;;;;;3.72;0.90;;;;;;;-143.85;100.00;70650.75;5091848;28;20035;-79
2022/08/05 06:52:26;;;;;;;0.93;0.93;;;;;;;-143.85;100.00;70650.75;5092249;28;20032;-79
2022/08/05 06:54:51;;;;;;;2.73;1.00;;;;;;;-143.85;100.00;70650.75;5091798;28;20434;-79
2022/08/05 06:57:17;;;;;;;24.67;2.83;;;;;;;-143.85;100.00;70650.75;5091784;28;20070;-79
2022/08/05 06:59:43;;;;;;;1.23;1.13;;;;;;;-143.85;100.00;70650.75;5091811;28;20016;-79
2022/08/05 07:02:08;;;;;;;1.10;1.00;;;;;;;-143.85;100.00;70650.75;5092912;28;20479;-79
2022/08/05 07:04:34;;;;;;;1.60;0.90;;;;;;;-143.85;100.00;70650.75;5091252;28;20016;-79
2022/08/05 07:06:59;;;;;;;7.10;1.47;;;;;;;-143.85;100.00;70650.75;5091676;28;20027;-79
2022/08/05 07:09:24;;;;;;;0.60;0.60;;;;;;;-143.85;100.00;70650.75;5091698;28;20024;-80
2022/08/05 07:11:50;;;;;;;1.13;0.80;;;;;;;-143.85;100.00;70650.75;5092902;28;20020;-79
2022/08/05 07:17:00;;;;;;;2.13;0.68;;;;;;;-143.85;100.00;70650.75;5092786;28;20387;-79
2022/08/05 07:19:27;;;;;;;0.80;0.80;;;;;;;-143.85;100.00;70650.75;5091445;28;20024;-79
2022/08/05 07:21:54;;;;;;;1.20;1.10;;;;;;;-143.85;100.00;70650.75;5092718;28;20028;-79
2022/08/05 07:24:20;;;;;;;;;;;;;;;-143.85;100.00;70650.75;5092029;28;20383;-79
2022/08/05 07:26:46;;;;;;;1.20;0.95;;;;;;;-143.85;100.00;70650.75;5091325;28;19904;-79
2022/08/05 07:29:12;;;;;;;0.90;0.90;;;;;;;-143.85;100.00;70650.75;5091302;28;20035;-79
2022/08/05 07:31:38;;;;;;;16.27;4.55;;;;;;;-143.85;100.00;70650.75;5091094;28;20056;-79
2022/08/05 07:34:04;;;;;;;0.80;0.80;;;;;;;-143.85;100.00;70650.75;5091231;28;20464;-79
2022/08/05 07:36:32;;;;;;;1.83;1.00;;;;;;;-143.85;100.00;70650.75;5091194;28;20028;-79
2022/08/05 07:39:05;;;;;;;0.85;0.82;;;;;;;-143.85;100.00;70650.75;5092473;28;20459;-79
2022/08/05 07:41:30;;;;;;;2.63;1.00;;;;;;;-143.85;100.00;70650.75;5091218;28;20111;-79
2022/08/05 07:43:57;;;;;;;2.67;1.50;;;;;;;-143.85;100.00;70650.75;5094317;28;20111;-79
2022/08/05 07:46:27;;;;;;;1.10;1.00;;;;;;;-143.85;100.00;70650.75;5095341;28;20051;-79
2022/08/05 07:48:54;;;;;;;1.00;1.00;;;;;;;-143.85;100.00;70650.75;5095249;28;20113;-78
2022/08/05 07:51:19;;;;;;;2.38;0.95;;;;;;;-143.85;100.00;70650.75;5096796;28;20051;-80
2022/08/05 07:53:45;;;;;;;1.20;1.13;;;;;;;-143.85;100.00;70650.75;5095485;28;20020;-77
2022/08/05 07:56:10;;;;;;;3.43;2.07;;;;;;;-143.85;100.00;70650.75;5095207;28;20476;-78
2022/08/05 07:58:36;;;;;;;1.30;1.07;;;;;;;-143.85;100.00;70650.75;5095015;28;20024;-79
2022/08/05 08:01:01;;;;;;;3.07;1.20;;;;;;;-143.85;100.00;70650.75;5095782;28;20107;-79
2022/08/05 08:03:27;;;;;;;1.33;1.00;;;;;;;-143.85;100.00;70650.75;5095035;28;20028;-79
2022/08/05 08:05:52;;;;;;;7.43;0.90;;;;;;;-143.85;100.00;70650.75;5095199;28;20020;-79
2022/08/05 08:08:18;;;;;;;0.93;0.90;;;;;;;-143.85;100.00;70650.75;5094986;28;20116;-79
2022/08/05 08:10:43;;;;;;;1.17;1.00;;;;;;;-143.85;100.00;70650.75;5095099;28;20039;-78
2022/08/05 08:13:09;;;;;;;6.87;1.07;;;;;;;-143.85;100.00;70650.75;5094113;28;20445;-79
2022/08/05 08:15:34;;;;;;;1.43;0.93;;;;;;;-143.85;100.00;70650.75;5094800;28;20487;-78
2022/08/05 08:18:00;;;;;;;1.03;0.87;;;;;;;-143.85;100.00;70650.75;5096318;28;20372;-80
2022/08/05 08:20:25;;;;;;;1.30;0.90;;;;;;;-143.85;100.00;70650.75;5094744;28;20027;-80
2022/08/05 08:22:56;;;;;;;0.90;0.73;;;;;;;-143.85;100.00;70650.75;5094051;28;20020;-79
2022/08/05 08:25:22;;;;;;;0.90;0.90;;;;;;;-143.85;100.00;70650.75;5094537;28;20020;-79
2022/08/05 08:27:48;;;;;;;1.00;1.00;;;;;;;-143.85;100.00;70650.75;5094286;28;20438;-79
2022/08/05 08:30:14;;;;;;;1.17;0.93;;;;;;;-143.85;100.00;70650.75;5094432;28;20024;-79
2022/08/05 08:32:41;;;;;;;1.10;1.00;;;;;;;-143.85;100.00;70650.75;5095791;28;20081;-81
2022/08/05 08:35:07;;;;;;;1.15;1.00;;;;;;;-143.85;100.00;70650.75;5094231;28;20062;-82
2022/08/05 08:37:33;;;;;;;1.43;1.33;;;;;;;-143.85;100.00;70650.75;5094642;28;20020;-81
2022/08/05 08:39:58;;;;;;;1.23;1.00;;;;;;;-143.85;100.00;70650.75;5095945;28;20520;-81
2022/08/05 08:42:24;;;;;;;1.08;1.02;;;;;;;-143.85;100.00;70650.75;5094202;28;20042;-82
2022/08/05 08:44:55;;;;;;;1.40;1.30;;;;;;;-143.85;100.00;70650.75;5094208;28;20024;-81
2022/08/05 08:47:26;;;;;;;1.17;1.08;;;;;;;-143.85;100.00;70650.75;5094249;28;20056;-80
2022/08/05 08:49:54;;;;;;;1.77;1.58;;;;;;;-143.85;100.00;70650.75;5095822;28;20492;-80
2022/08/05 08:52:28;;;;;;;1.15;1.05;;;;;;;-143.85;100.00;70650.75;5094086;28;20185;-80
2022/08/05 08:54:54;;;;;;;0.95;0.85;;;;;;;-143.85;100.00;70650.75;5094885;28;20038;-81
2022/08/05 08:57:20;;;;;;;1.35;1.25;;;;;;;-143.85;100.00;70650.75;5093949;28;20031;-80
2022/08/05 08:59:46;;;;;;;1.50;1.02;;;;;;;-143.85;100.00;70650.75;5095627;28;20045;-80
2022/08/05 09:02:12;;;;;;;1.23;0.90;;;;;;;-143.85;100.00;70650.75;5093960;28;20028;-80
2022/08/05 09:04:38;;;;;;;1.15;1.05;;;;;;;-143.85;100.00;70650.75;5093919;28;20383;-81
2022/08/05 09:07:07;;;;;;;1.25;0.93;;;;;;;-143.85;100.00;70650.75;5093925;28;20024;-80
2022/08/05 09:09:34;;;;;;;1.55;1.10;;;;;;;-143.85;100.00;70650.75;5094262;28;20034;-80
2022/08/05 09:12:01;;;;;;;2.27;0.87;;;;;;;-143.85;100.00;70650.75;5093939;28;20073;-81
2022/08/05 09:14:27;;;;;;;1.10;1.00;;;;;;;-143.85;100.00;70650.75;5094078;28;20261;-80
2022/08/05 09:16:52;;;;;;;2.38;1.10;;;;;;;-143.85;100.00;70650.75;5093675;28;20111;-81
2022/08/05 09:19:18;;;;;;;8.05;2.08;;;;;;;-143.85;100.00;70650.75;5093609;28;20017;-81
2022/08/05 09:21:43;;;;;;;3.85;1.30;;;;;;;-143.85;100.00;70650.75;5093525;28;20078;-81
2022/08/05 09:24:09;;;;;;;0.93;0.93;;;;;;;-143.85;100.00;70650.75;5093481;28;20483;-81
2022/08/05 09:26:35;;;;;;;1.52;0.95;;;;;;;-143.85;100.00;70650.75;5093448;28;20024;-81
2022/08/05 09:29:04;;;;;;;1.25;1.15;;;;;;;-143.85;100.00;70650.75;5093495;28;20107;-81
2022/08/05 09:31:31;;;;;;;2.17;1.30;;;;;;;-143.85;100.00;70650.75;5094358;28;20391;-80
2022/08/05 09:34:02;;;;;;;4.17;1.30;;;;;;;-143.85;100.00;70650.75;5094608;28;20024;-80
2022/08/05 09:36:57;;;;;;;2.72;1.08;;;;;;;-143.85;100.00;70650.75;5094550;28;20024;-80
2022/08/05 09:39:23;;;;;;;1.05;1.05;;;;;;;-143.85;100.00;70650.75;5095010;28;20503;-81
2022/08/05 09:42:03;;;;;;;2.72;0.80;;;;;;;-143.85;100.00;70650.75;5093455;28;20024;-80
2022/08/05 09:44:44;;;;;;;1.08;0.90;;;;;;;-143.85;100.00;70650.75;5093339;28;20387;-80
2022/08/05 09:47:14;;;;;;;0.80;0.70;;;;;;;-143.85;100.00;70650.75;5092912;28;20043;-80
2022/08/05 09:49:46;;;;;;;1.65;1.00;;;;;;;-143.85;100.00;70650.75;5093452;28;20082;-80
2022/08/05 09:52:29;;;;;;;1.42;1.00;;;;;;;-143.85;100.00;70650.75;5093094;28;20028;-80
2022/08/05 09:55:09;;;;;;;1.15;1.05;;;;;;;-143.85;100.00;70650.75;5092983;28;20509;-81
2022/08/05 09:57:46;;;;;;;1.55;0.82;;;;;;;-143.85;100.00;70650.75;5094309;28;20036;-80
2022/08/05 10:00:12;;;;;;;;;;;;;;;-143.85;100.00;70650.75;5093650;28;20020;-80
2022/08/05 10:02:40;;;;;;;4.78;1.48;;;;;;;-143.85;100.00;70650.75;5092845;28;20287;-81
2022/08/05 10:05:11;;;;;;;1.70;1.15;;;;;;;-143.85;100.00;70650.75;5093120;28;20027;-81
2022/08/05 10:07:56;;;;;;;1.95;0.90;;;;;;;-143.85;100.00;70650.75;5092809;28;20364;-80
2022/08/05 10:10:25;;;;;;;1.05;0.95;;;;;;;-143.85;100.00;70650.75;5093202;28;20073;-81
2022/08/05 10:12:56;;;;;;;0.70;0.70;;;;;;;-143.85;100.00;70650.75;5092700;28;20016;-81
2022/08/05 10:15:22;;;;;;;1.10;1.10;;;;;;;-143.85;100.00;70650.75;5092655;28;20456;-80
2022/08/05 10:18:05;;;;;;;1.03;0.93;;;;;;;-143.85;100.00;70650.75;5092522;28;20023;-80
2022/08/05 10:20:33;;;;;;;1.77;1.20;;;;;;;-143.85;100.00;70650.75;5092437;28;20052;-81
2022/08/05 10:22:59;;;;;;;;;;;;;;;-143.85;100.00;70650.75;5092824;28;20036;-80
2022/08/05 10:25:25;;;;;;;1.98;1.25;;;;;;;-143.85;100.00;70650.75;5092362;28;19904;-80
2022/08/05 10:27:52;;;;;;;3.17;1.33;;;;;;;-143.85;100.00;70650.75;5092506;28;20023;-80
2022/08/05 10:30:18;;;;;;;;;;;;;;;-143.85;100.00;70650.75;5092665;28;20078;-80
2022/08/05 10:32:45;;;;;;;1.05;0.95;;;;;;;-143.85;100.00;70650.75;5092110;28;19956;-80
2022/08/05 10:35:10;;;;;;;1.10;1.00;;;;;;;-143.85;100.00;70650.75;5093526;28;20020;-80
2022/08/05 10:37:36;;;;;;;1.25;1.10;;;;;;;-143.85;100.00;70650.75;5092108;28;20407;-81
2022/08/05 10:40:05;;;;;;;1.45;1.23;;;;;;;-143.85;100.00;70650.75;5092383;28;20055;-81
2022/08/05 10:42:35;;;;;;;1.60;1.25;;;;;;;-143.85;100.00;70650.75;5091741;28;20023;-81
2022/08/05 10:45:03;;;;;;;2.67;1.08;;;;;;;-143.85;100.00;70650.75;5093212;28;20103;-80
2022/08/05 10:47:31;;;;;;;0.80;0.80;;;;;;;-143.85;100.00;70650.75;5091675;28;20043;-80
2022/08/05 10:50:08;;;;;;;1.75;1.40;;;;;;;-143.85;100.00;70650.75;5093210;28;20035;-80
2022/08/05 10:52:58;;;;;;;1.30;1.20;;;;;;;-143.85;100.00;70650.75;5091864;28;20478;-80
2022/08/05 10:55:26;;;;;;;1.83;1.20;;;;;;;-143.85;100.00;70650.75;5092049;28;20041;-80
2022/08/05 10:58:07;;;;;;;2.00;1.40;;;;;;;-143.85;100.00;70650.75;5092763;28;20016;-80
2022/08/05 11:00:33;;;;;;;3.08;1.90;;;;;;;-143.85;100.00;70650.75;5091781;28;20051;-80
2022/08/05 11:03:04;;;;;;;1.30;1.00;;;;;;;-143.85;100.00;70650.75;5091696;28;20059;-80
2022/08/05 11:05:30;;;;;;;2.03;1.13;;;;;;;-143.85;100.00;70650.75;5091800;28;20386;-80
2022/08/05 11:07:58;;;;;;;1.15;1.05;;;;;;;-143.85;100.00;70650.75;5091652;28;20020;-81
2022/08/05 11:10:25;;;;;;;1.42;1.10;;;;;;;-143.85;100.00;70650.75;5092784;28;20053;-81
2022/08/05 11:12:50;;;;;;;0.80;0.80;;;;;;;-143.85;100.00;70650.75;5091485;28;20028;-80
2022/08/05 11:15:19;;;;;;;0.95;0.88;;;;;;;-143.85;100.00;70650.75;5091468;28;20042;-80